Time;durP1;ratioP1;P1;durP2;ratioP2;P2;SDS_P1;SDS_P2;PMS_P1;PMS_P2;Temp;Humidity;BMP_temperature;BMP_pressure;BME280_temperature;BME280_humidity;BME280_pressure;Samples;Min_cycle;Max_cycle;Signal;HPM_P1;HPM_P2
2022/12/01 00:01:12;;;;;;;23.33;14.17;;;8.50;76.20;8.30;96768.00;;;;5058684;28;20231;-84
2022/12/01 00:03:40;;;;;;;24.23;13.73;;;8.50;76.10;8.30;96772.00;;;;5061174;28;20708;-84
2022/12/01 00:06:14;;;;;;;26.53;14.57;;;8.50;76.10;8.30;96766.00;;;;5054710;28;20782;-84
2022/12/01 00:10:24;;;;;;;28.27;14.83;;;8.50;76.20;8.30;96765.00;;;;5056925;28;20579;-84
2022/12/01 00:11:28;;;;;;;24.27;13.63;;;8.50;76.20;8.30;96757.00;;;;5054843;28;20216;-82
2022/12/01 00:13:55;;;;;;;23.30;14.03;;;8.50;76.10;8.40;96747.00;;;;5057247;28;20217;-84
2022/12/01 00:16:22;;;;;;;22.47;14.20;;;8.50;76.20;8.40;96758.00;;;;5056212;28;20192;-84
2022/12/01 00:18:50;;;;;;;25.90;13.93;;;8.50;76.40;8.40;96753.00;;;;5056694;28;20670;-84
2022/12/01 00:21:22;;;;;;;24.93;14.20;;;8.50;76.40;8.40;96751.00;;;;5054737;28;20295;-84
2022/12/01 00:23:53;;;;;;;27.00;15.00;;;8.50;76.30;8.40;96756.00;;;;5054808;28;20239;-84
2022/12/01 00:26:22;;;;;;;22.97;14.33;;;8.50;76.10;8.40;96756.00;;;;5054222;28;20292;-84
2022/12/01 00:28:50;;;;;;;26.87;14.93;;;8.50;76.10;8.40;96756.00;;;;5054528;28;20287;-84
2022/12/01 00:31:18;;;;;;;24.83;14.20;;;8.60;76.30;8.40;96745.00;;;;5055462;28;20282;-84
2022/12/01 00:33:45;;;;;;;23.07;13.47;;;8.60;76.30;8.40;96752.00;;;;5057055;28;21034;-84
2022/12/01 00:36:13;;;;;;;24.93;13.73;;;8.60;76.30;8.50;96761.00;;;;5051507;28;20199;-84
2022/12/01 00:38:41;;;;;;;23.23;13.17;;;8.60;76.40;8.50;96744.00;;;;5060292;28;20315;-85
2022/12/01 00:41:09;;;;;;;24.67;14.20;;;8.50;76.30;8.50;96753.00;;;;5060181;28;20629;-84
2022/12/01 00:43:36;;;;;;;26.23;14.43;;;8.60;76.30;8.50;96749.00;;;;5056553;28;20243;-83
2022/12/01 00:46:04;;;;;;;24.17;13.97;;;8.60;76.30;8.50;96753.00;;;;5058628;28;20764;-84
2022/12/01 00:48:31;;;;;;;24.10;14.27;;;8.60;76.30;8.50;96754.00;;;;5059063;28;20297;-84
2022/12/01 00:50:58;;;;;;;24.60;14.43;;;8.60;76.40;8.50;96752.00;;;;5060003;28;20280;-84
2022/12/01 00:53:25;;;;;;;25.23;14.17;;;8.60;76.30;8.50;96749.00;;;;5058234;28;20224;-84
2022/12/01 00:55:54;;;;;;;21.83;13.00;;;8.60;76.20;8.50;96751.00;;;;5057966;28;20289;-84
2022/12/01 00:58:21;;;;;;;24.23;14.33;;;8.70;76.40;8.60;96760.00;;;;5058289;28;20220;-84
2022/12/01 01:00:48;;;;;;;23.27;13.70;;;8.70;76.30;8.50;96757.00;;;;5060207;28;20200;-84
2022/12/01 01:03:16;;;;;;;22.77;14.17;;;8.70;76.40;8.50;96752.00;;;;5056290;28;20235;-84
2022/12/01 01:05:44;;;;;;;26.00;13.87;;;8.70;76.30;8.50;96758.00;;;;5056489;28;20239;-84
2022/12/01 01:08:13;;;;;;;21.73;13.70;;;8.70;76.30;8.50;96756.00;;;;5058660;28;20354;-84
2022/12/01 01:10:43;;;;;;;21.07;13.07;;;8.70;76.40;8.60;96756.00;;;;5056908;28;20204;-84
2022/12/01 01:13:13;;;;;;;28.77;13.13;;;8.70;76.40;8.50;96762.00;;;;5058189;28;20255;-84
2022/12/01 01:15:40;;;;;;;21.90;13.30;;;8.70;76.40;8.60;96768.00;;;;5059505;28;20288;-84
2022/12/01 01:18:08;;;;;;;26.40;13.30;;;8.70;76.40;8.60;96765.00;;;;5057310;28;20232;-84
2022/12/01 01:20:36;;;;;;;16.60;12.00;;;8.70;76.40;8.60;96763.00;;;;5057911;28;20208;-84
2022/12/01 01:23:03;;;;;;;24.33;13.07;;;8.70;76.40;8.60;96753.00;;;;5056751;28;20280;-84
2022/12/01 01:25:32;;;;;;;19.23;11.80;;;8.70;76.40;8.60;96753.00;;;;5058831;28;20203;-83
2022/12/01 01:28:00;;;;;;;21.87;12.93;;;8.70;76.50;8.60;96758.00;;;;5060068;28;20232;-82
2022/12/01 01:30:29;;;;;;;21.17;12.60;;;8.70;76.30;8.60;96752.00;;;;5059835;28;20625;-84
2022/12/01 01:32:56;;;;;;;19.97;12.53;;;8.70;76.20;8.60;96753.00;;;;5058421;28;20342;-84
2022/12/01 01:35:23;;;;;;;18.50;12.00;;;8.70;76.40;8.60;96750.00;;;;5056310;28;20200;-83
2022/12/01 01:37:50;;;;;;;17.90;12.67;;;8.70;76.40;8.60;96750.00;;;;5059704;28;20320;-83
2022/12/01 01:40:18;;;;;;;18.83;12.50;;;8.70;76.40;8.60;96748.00;;;;5055792;28;20199;-84
2022/12/01 01:42:45;;;;;;;19.27;12.60;;;8.70;76.50;8.60;96748.00;;;;5058112;28;20234;-84
2022/12/01 01:45:22;;;;;;;19.07;12.57;;;8.70;76.50;8.60;96754.00;;;;5056596;28;20246;-84
2022/12/01 01:47:54;;;;;;;19.40;12.07;;;8.80;76.20;8.60;96753.00;;;;5061437;28;20242;-84
2022/12/01 01:50:26;;;;;;;20.37;12.23;;;8.70;76.30;8.60;96748.00;;;;5059171;28;20291;-84
2022/12/01 01:53:01;;;;;;;24.90;11.67;;;8.70;76.40;8.60;96749.00;;;;5056224;28;20326;-84
2022/12/01 01:55:30;;;;;;;19.83;12.27;;;8.70;76.40;8.60;96750.00;;;;5056116;28;20203;-84
2022/12/01 01:57:58;;;;;;;18.57;12.27;;;8.80;76.60;8.60;96750.00;;;;5058212;28;20226;-83
2022/12/01 02:00:25;;;;;;;16.57;11.80;;;8.80;76.60;8.70;96752.00;;;;5058819;28;20266;-84
2022/12/01 02:02:56;;;;;;;19.47;12.37;;;8.80;76.60;8.70;96743.00;;;;5057502;28;20258;-84
2022/12/01 02:05:28;;;;;;;18.07;12.47;;;8.80;76.60;8.70;96733.00;;;;5052226;28;20694;-84
2022/12/01 02:07:58;;;;;;;18.23;11.60;;;8.80;76.50;8.70;96733.00;;;;5056909;28;20304;-82
2022/12/01 02:10:45;;;;;;;19.00;11.63;;;8.80;76.40;8.70;96729.00;;;;5057089;28;20292;-84
2022/12/01 02:13:24;;;;;;;16.50;11.23;;;8.80;76.30;8.70;96747.00;;;;5056162;28;20311;-84
2022/12/01 02:16:02;;;;;;;17.97;11.67;;;8.80;76.30;8.70;96747.00;;;;5055787;28;20200;-84
2022/12/01 02:18:45;;;;;;;18.00;11.93;;;8.80;76.20;8.70;96746.00;;;;5058801;28;20716;-84
2022/12/01 02:21:55;;;;;;;18.70;12.17;;;8.80;76.30;8.70;96739.00;;;;5057848;28;20258;-84
2022/12/01 02:25:09;;;;;;;17.40;11.07;;;8.80;76.20;8.60;96742.00;;;;5046105;28;20291;-84
2022/12/01 02:28:13;;;;;;;16.27;10.57;;;8.80;76.10;8.60;96736.00;;;;5057269;28;20224;-84
2022/12/01 02:30:48;;;;;;;17.20;10.77;;;8.80;76.30;8.60;96727.00;;;;5057952;28;20282;-84
2022/12/01 02:33:23;;;;;;;17.73;11.37;;;8.80;76.50;8.60;96720.00;;;;5055846;28;20705;-84
2022/12/01 02:36:00;;;;;;;16.63;11.50;;;8.80;76.60;8.70;96718.00;;;;5058041;28;20254;-84
2022/12/01 02:38:34;;;;;;;17.53;11.07;;;8.80;76.60;8.70;96727.00;;;;5057889;28;20733;-84
2022/12/01 02:41:10;;;;;;;17.37;10.50;;;8.80;76.60;8.70;96720.00;;;;5056476;28;20291;-84
2022/12/01 02:43:48;;;;;;;18.27;11.20;;;8.80;76.60;8.70;96722.00;;;;5056266;28;20253;-84
2022/12/01 02:46:24;;;;;;;18.83;10.93;;;8.80;76.50;8.70;96718.00;;;;5057972;28;20250;-84
2022/12/01 02:48:54;;;;;;;17.47;11.53;;;8.80;76.50;8.70;96717.00;;;;5057579;28;21092;-83
2022/12/01 02:51:29;;;;;;;17.30;11.20;;;8.80;76.60;8.70;96709.00;;;;5058329;28;20730;-84
2022/12/01 02:53:59;;;;;;;15.93;10.63;;;8.90;76.60;8.70;96720.00;;;;5054946;28;20292;-84
2022/12/01 02:56:27;;;;;;;15.90;10.77;;;8.80;76.60;8.70;96717.00;;;;5057470;28;20746;-83
2022/12/01 02:58:54;;;;;;;17.73;10.83;;;8.80;76.50;8.70;96701.00;;;;5056975;28;20725;-83
2022/12/01 03:01:46;;;;;;;16.97;10.47;;;8.80;76.40;8.70;96703.00;;;;5055826;28;20429;-84
2022/12/01 03:04:42;;;;;;;15.60;10.97;;;8.80;76.30;8.70;96714.00;;;;5056306;28;20320;-83
2022/12/01 03:07:39;;;;;;;16.20;10.03;;;8.90;76.70;8.70;96710.00;;;;5057654;28;20315;-84
2022/12/01 03:10:19;;;;;;;20.43;10.63;;;8.90;76.50;8.70;96706.00;;;;5048605;28;20204;-84
2022/12/01 03:13:01;;;;;;;16.93;10.10;;;8.90;76.50;8.70;96709.00;;;;5057266;28;20307;-84
2022/12/01 03:15:36;;;;;;;15.47;10.33;;;8.90;76.60;8.70;96707.00;;;;5057731;28;20290;-84
2022/12/01 03:18:22;;;;;;;20.00;11.47;;;8.90;76.60;8.80;96711.00;;;;5056234;28;20278;-84
2022/12/01 03:20:59;;;;;;;17.23;10.30;;;8.90;76.60;8.80;96709.00;;;;5058164;28;20293;-84
2022/12/01 03:23:33;;;;;;;15.77;10.80;;;8.90;76.60;8.80;96706.00;;;;5054359;28;20306;-83
2022/12/01 03:26:06;;;;;;;15.27;10.93;;;8.90;76.70;8.80;96706.00;;;;5054466;28;20318;-83
2022/12/01 03:28:42;;;;;;;17.40;11.03;;;8.90;77.40;8.80;96713.00;;;;5055480;28;20212;-84
2022/12/01 03:31:16;;;;;;;18.83;11.00;;;8.90;76.60;8.80;96713.00;;;;5054685;28;20705;-84
2022/12/01 03:33:52;;;;;;;15.20;10.93;;;8.90;76.60;8.80;96714.00;;;;5058426;28;20224;-84
2022/12/01 03:36:27;;;;;;;15.20;10.83;;;8.90;76.50;8.80;96717.00;;;;5053777;28;20704;-84
2022/12/01 03:39:00;;;;;;;15.97;10.13;;;8.90;76.60;8.80;96714.00;;;;5057777;28;20318;-84
2022/12/01 03:41:35;;;;;;;23.30;11.87;;;8.90;76.60;8.80;96709.00;;;;5057653;28;20205;-84
2022/12/01 03:44:11;;;;;;;17.00;10.50;;;8.90;76.60;8.80;96708.00;;;;5055893;28;20724;-84
2022/12/01 03:46:49;;;;;;;20.10;10.33;;;9.00;76.40;8.80;96712.00;;;;5058144;28;20276;-84
2022/12/01 03:49:19;;;;;;;16.07;10.90;;;9.00;76.40;8.80;96712.00;;;;5054852;28;20200;-84
2022/12/01 03:51:57;;;;;;;16.53;10.17;;;9.00;76.50;8.80;96714.00;;;;5056411;28;20292;-84
2022/12/01 03:54:38;;;;;;;15.60;10.07;;;9.00;76.50;8.80;96711.00;;;;5055250;28;20653;-84
2022/12/01 03:57:15;;;;;;;14.67;10.47;;;9.00;76.50;8.80;96717.00;;;;5057484;28;20197;-84
2022/12/01 03:59:45;;;;;;;13.93;10.17;;;9.00;76.40;8.80;96717.00;;;;5058051;28;20271;-84
2022/12/01 04:02:13;;;;;;;15.03;10.43;;;9.00;76.50;8.80;96714.00;;;;5058590;28;20262;-83
2022/12/01 04:04:41;;;;;;;16.90;10.50;;;9.00;77.20;8.80;96718.00;;;;5058773;28;20211;-84
2022/12/01 04:07:12;;;;;;;13.93;9.97;;;9.00;76.40;8.80;96718.00;;;;5059085;28;20236;-84
2022/12/01 04:09:40;;;;;;;14.33;11.30;;;9.00;76.30;8.80;96714.00;;;;5062851;28;20577;-84
2022/12/01 04:14:54;;;;;;;16.37;10.33;;;9.00;75.80;8.80;96710.00;;;;5061552;28;20253;-84
2022/12/01 04:17:21;;;;;;;24.27;11.13;;;9.00;75.70;8.80;96724.00;;;;5061921;28;20231;-84
2022/12/01 04:19:49;;;;;;;13.80;9.57;;;9.00;75.70;8.80;96719.00;;;;5060809;28;20255;-84
2022/12/01 04:22:17;;;;;;;15.30;9.70;;;9.00;75.70;8.80;96718.00;;;;5061648;28;20596;-84
2022/12/01 04:24:44;;;;;;;14.30;10.00;;;8.90;75.80;8.80;96716.00;;;;5059032;28;20292;-84
2022/12/01 04:27:11;;;;;;;13.00;9.93;;;8.90;75.70;8.80;96724.00;;;;5059873;28;20710;-84
2022/12/01 04:29:39;;;;;;;14.83;10.40;;;8.90;75.90;8.80;96723.00;;;;5059167;28;20297;-84
2022/12/01 04:32:06;;;;;;;14.80;10.13;;;8.90;76.00;8.80;96720.00;;;;5059222;28;20661;-84
2022/12/01 04:34:33;;;;;;;14.43;10.87;;;8.90;76.10;8.80;96714.00;;;;5059619;28;20196;-84
2022/12/01 04:37:02;;;;;;;18.17;10.50;;;8.90;76.10;8.80;96718.00;;;;5059477;28;20639;-84
2022/12/01 04:39:29;;;;;;;13.20;9.50;;;8.90;76.10;8.80;96716.00;;;;5061225;28;20764;-84
2022/12/01 04:41:56;;;;;;;14.93;10.30;;;8.90;76.10;8.80;96713.00;;;;5059945;28;20238;-84
2022/12/01 04:44:23;;;;;;;14.90;10.80;;;8.90;76.10;8.80;96711.00;;;;5059615;28;20280;-84
2022/12/01 04:46:52;;;;;;;15.07;10.23;;;8.90;76.20;8.80;96708.00;;;;5059537;28;20654;-84
2022/12/01 04:49:20;;;;;;;15.13;11.37;;;8.90;76.20;8.80;96707.00;;;;5059353;28;20350;-84
2022/12/01 04:51:48;;;;;;;15.07;10.13;;;8.90;76.20;8.80;96708.00;;;;5060164;28;20611;-84
2022/12/01 04:54:17;;;;;;;14.57;10.10;;;8.90;76.20;8.80;96710.00;;;;5059749;28;20200;-84
2022/12/01 04:56:44;;;;;;;16.90;10.03;;;9.00;76.30;8.80;96719.00;;;;5058872;28;20283;-84
2022/12/01 04:59:12;;;;;;;15.67;10.00;;;8.90;76.20;8.80;96712.00;;;;5059203;28;20311;-84
2022/12/01 05:01:39;;;;;;;15.20;9.70;;;9.00;76.20;8.80;96713.00;;;;5056418;28;20291;-84
2022/12/01 05:04:06;;;;;;;13.30;9.70;;;9.00;76.30;8.80;96713.00;;;;5059983;28;20219;-83
2022/12/01 05:06:34;;;;;;;15.43;10.03;;;9.00;76.30;8.80;96720.00;;;;5058575;28;20199;-84
2022/12/01 05:09:02;;;;;;;15.00;10.27;;;9.00;76.30;8.80;96723.00;;;;5060295;28;20666;-84
2022/12/01 05:11:32;;;;;;;15.47;10.53;;;9.00;76.10;8.80;96727.00;;;;5059271;28;20204;-84
2022/12/01 05:13:59;;;;;;;13.60;9.67;;;9.00;75.90;8.80;96723.00;;;;5060189;28;20311;-84
2022/12/01 05:16:30;;;;;;;14.90;9.60;;;8.90;75.90;8.80;96726.00;;;;5059265;28;20715;-85
2022/12/01 05:21:48;;;;;;;14.33;9.50;;;8.90;75.90;8.80;96725.00;;;;5058889;28;20338;-84
2022/12/01 05:24:16;;;;;;;17.67;10.43;;;8.90;75.80;8.70;96720.00;;;;5058760;28;20238;-84
2022/12/01 05:26:45;;;;;;;12.30;9.27;;;8.90;75.80;8.80;96729.00;;;;5059909;28;20283;-84
2022/12/01 05:29:13;;;;;;;12.53;8.90;;;8.90;75.70;8.70;96724.00;;;;5055636;28;20290;-84
2022/12/01 05:31:40;;;;;;;14.60;9.87;;;8.90;75.80;8.70;96729.00;;;;5056142;28;20282;-83
2022/12/01 05:34:08;;;;;;;12.33;9.40;;;8.90;75.90;8.70;96731.00;;;;5059145;28;20259;-84
2022/12/01 05:36:36;;;;;;;13.90;9.87;;;8.90;76.00;8.80;96731.00;;;;5058983;28;20292;-84
2022/12/01 05:39:04;;;;;;;15.53;10.30;;;8.90;75.80;8.70;96732.00;;;;5059374;28;20220;-82
2022/12/01 05:41:32;;;;;;;14.87;10.00;;;8.90;76.00;8.80;96726.00;;;;5055434;28;20611;-84
2022/12/01 05:44:00;;;;;;;15.13;10.43;;;8.90;76.10;8.80;96732.00;;;;5057884;28;20235;-84
2022/12/01 05:46:27;;;;;;;13.47;9.73;;;8.90;76.10;8.80;96728.00;;;;5056604;28;20199;-84
2022/12/01 05:48:54;;;;;;;13.07;9.60;;;8.90;76.10;8.80;96729.00;;;;5060112;28;20196;-84
2022/12/01 05:51:21;;;;;;;14.50;9.63;;;8.90;76.10;8.80;96735.00;;;;5055410;28;20293;-85
2022/12/01 05:53:49;;;;;;;15.10;9.23;;;8.90;76.70;8.80;96728.00;;;;5061030;28;20704;-82
2022/12/01 05:56:16;;;;;;;14.43;9.87;;;8.90;75.90;8.80;96729.00;;;;5058218;28;20239;-84
2022/12/01 05:58:43;;;;;;;13.77;9.73;;;8.90;75.90;8.80;96729.00;;;;5056786;28;20209;-84
2022/12/01 06:01:11;;;;;;;12.37;9.27;;;8.90;75.80;8.80;96724.00;;;;5057130;28;20223;-84
2022/12/01 06:03:38;;;;;;;14.70;9.67;;;8.90;75.90;8.80;96731.00;;;;5058142;28;20248;-83
2022/12/01 06:06:06;;;;;;;13.63;9.93;;;8.90;76.00;8.80;96740.00;;;;5056674;28;20204;-83
2022/12/01 06:08:33;;;;;;;15.47;9.80;;;8.90;76.00;8.80;96731.00;;;;5056924;28;20208;-84
2022/12/01 06:11:00;;;;;;;13.60;9.83;;;8.90;76.10;8.80;96736.00;;;;5056227;28;20286;-83
2022/12/01 06:13:27;;;;;;;14.97;9.63;;;8.90;75.90;8.80;96736.00;;;;5057226;28;20304;-84
2022/12/01 06:15:59;;;;;;;13.23;9.37;;;8.90;76.00;8.80;96739.00;;;;5059120;28;20235;-84
2022/12/01 06:18:30;;;;;;;14.93;10.03;;;8.90;76.00;8.80;96742.00;;;;5055749;28;20234;-84
2022/12/01 06:20:57;;;;;;;13.93;9.67;;;8.90;76.00;8.80;96736.00;;;;5055076;28;20311;-84
2022/12/01 06:23:24;;;;;;;17.20;10.07;;;8.90;76.00;8.80;96735.00;;;;5057440;28;21116;-83
2022/12/01 06:25:52;;;;;;;12.97;9.23;;;8.90;75.90;8.80;96740.00;;;;5055885;28;20220;-84
2022/12/01 06:28:19;;;;;;;13.70;10.00;;;9.00;75.90;8.80;96743.00;;;;5054551;28;20227;-83
2022/12/01 06:30:46;;;;;;;14.27;10.13;;;8.90;75.80;8.70;96747.00;;;;5058895;28;20238;-83
2022/12/01 06:33:13;;;;;;;13.83;9.53;;;8.90;75.70;8.80;96751.00;;;;5055342;28;20242;-83
2022/12/01 06:35:42;;;;;;;18.00;10.33;;;8.90;75.70;8.70;96749.00;;;;5057696;28;20556;-84
2022/12/01 06:38:09;;;;;;;14.23;9.47;;;8.90;75.80;8.70;96764.00;;;;5056357;28;20872;-83
2022/12/01 06:40:36;;;;;;;15.43;9.80;;;8.90;75.90;8.80;96752.00;;;;5054541;28;20763;-87
2022/12/01 06:43:03;;;;;;;12.30;9.40;;;8.90;76.00;8.80;96747.00;;;;5053168;28;20299;-87
2022/12/01 06:45:31;;;;;;;15.07;10.10;;;8.90;76.10;8.80;96755.00;;;;5055199;28;21210;-88
2022/12/01 06:47:58;;;;;;;14.83;10.63;;;8.90;76.00;8.90;96752.00;;;;5056798;28;20221;-87
2022/12/01 06:50:26;;;;;;;15.00;10.00;;;8.90;75.70;8.90;96763.00;;;;5053082;28;20469;-87
2022/12/01 06:52:55;;;;;;;14.37;10.10;;;9.00;75.70;8.90;96753.00;;;;5055830;28;20338;-87
2022/12/01 06:55:22;;;;;;;14.23;9.90;;;8.90;75.70;8.90;96760.00;;;;5056125;28;20204;-86
2022/12/01 06:57:49;;;;;;;14.73;9.73;;;8.90;75.60;8.90;96756.00;;;;5055963;28;20204;-88
2022/12/01 07:00:17;;;;;;;15.67;10.50;;;8.90;75.50;9.00;96753.00;;;;5052847;28;20319;-87
2022/12/01 07:02:44;;;;;;;14.30;10.20;;;9.00;75.50;9.00;96757.00;;;;5054496;28;20324;-87
2022/12/01 07:05:11;;;;;;;15.73;10.07;;;9.00;75.50;9.00;96757.00;;;;5046825;28;20295;-87
2022/12/01 07:07:39;;;;;;;15.60;9.90;;;9.00;75.50;9.00;96759.00;;;;5056752;28;20249;-88
2022/12/01 07:10:10;;;;;;;14.60;10.03;;;9.00;75.60;9.00;96759.00;;;;5054297;28;20314;-88
2022/12/01 07:12:38;;;;;;;15.10;10.30;;;9.00;75.60;9.00;96758.00;;;;5057380;28;20263;-87
2022/12/01 07:15:08;;;;;;;16.33;10.87;;;9.00;75.60;9.00;96764.00;;;;5052277;28;20792;-88
2022/12/01 07:17:36;;;;;;;17.27;10.03;;;9.00;75.40;9.00;96767.00;;;;5053670;28;20203;-87
2022/12/01 07:20:04;;;;;;;17.80;10.13;;;9.00;76.20;9.00;96764.00;;;;5054202;28;20224;-88
2022/12/01 07:22:31;;;;;;;13.27;9.60;;;9.00;75.60;9.00;96769.00;;;;5053528;28;20958;-87
2022/12/01 07:24:58;;;;;;;15.77;10.13;;;9.00;75.60;9.00;96770.00;;;;5051439;28;20201;-87
2022/12/01 07:27:30;;;;;;;16.83;11.00;;;9.00;75.60;9.00;96779.00;;;;5056638;28;20200;-87
2022/12/01 07:29:57;;;;;;;15.03;10.63;;;9.00;75.70;9.00;96771.00;;;;5051766;28;20746;-85
2022/12/01 07:32:24;;;;;;;18.03;10.97;;;9.00;75.80;9.00;96769.00;;;;5053447;28;20780;-87
2022/12/01 07:34:51;;;;;;;14.47;9.87;;;9.00;75.90;9.10;96776.00;;;;5059643;28;20246;-87
2022/12/01 07:37:18;;;;;;;16.63;11.00;;;9.00;75.80;9.10;96777.00;;;;5060155;28;20295;-87
2022/12/01 07:39:46;;;;;;;13.93;9.80;;;9.00;75.80;9.10;96776.00;;;;5052714;28;20220;-87
2022/12/01 07:42:13;;;;;;;15.03;9.87;;;9.00;75.80;9.10;96772.00;;;;5055782;28;20253;-86
2022/12/01 07:44:41;;;;;;;15.03;9.80;;;9.10;75.80;9.10;96774.00;;;;5057140;28;20216;-87
2022/12/01 07:47:08;;;;;;;14.57;10.03;;;9.10;75.70;9.10;96775.00;;;;5056194;28;20300;-87
2022/12/01 07:49:36;;;;;;;14.53;9.97;;;9.10;75.70;9.10;96775.00;;;;5050476;28;20332;-87
2022/12/01 07:52:03;;;;;;;15.30;10.07;;;9.10;75.80;9.10;96776.00;;;;5052652;28;20203;-87
2022/12/01 07:54:30;;;;;;;14.37;10.27;;;9.10;75.80;9.10;96778.00;;;;5051727;28;20205;-86
2022/12/01 07:56:57;;;;;;;18.07;9.87;;;9.10;75.90;9.20;96771.00;;;;5054305;28;20692;-87
2022/12/01 07:59:24;;;;;;;12.87;9.47;;;9.10;75.70;9.20;96774.00;;;;5052287;28;20875;-87
2022/12/01 08:01:53;;;;;;;14.23;9.73;;;9.10;75.50;9.20;96786.00;;;;5052308;28;20737;-87
2022/12/01 08:04:20;;;;;;;14.43;9.67;;;9.10;75.50;9.20;96783.00;;;;5053818;28;21126;-87
2022/12/01 08:06:47;;;;;;;14.37;10.10;;;9.20;75.60;9.20;96792.00;;;;5054569;28;20292;-87
2022/12/01 08:09:14;;;;;;;14.47;9.70;;;9.20;75.50;9.20;96782.00;;;;5054679;28;20239;-87
2022/12/01 08:11:41;;;;;;;14.67;9.50;;;9.20;75.40;9.30;96795.00;;;;5054603;28;20208;-87
2022/12/01 08:14:08;;;;;;;13.70;9.70;;;9.20;75.40;9.30;96796.00;;;;5052449;28;20247;-87
2022/12/01 08:16:35;;;;;;;13.70;9.57;;;9.20;75.60;9.20;96792.00;;;;5051915;28;20207;-87
2022/12/01 08:19:04;;;;;;;14.40;10.37;;;9.20;75.60;9.30;96792.00;;;;5055092;28;20201;-88
2022/12/01 08:21:31;;;;;;;13.73;9.10;;;9.20;75.50;9.30;96786.00;;;;5052549;28;20311;-88
2022/12/01 08:23:59;;;;;;;14.30;9.97;;;9.20;75.50;9.30;96787.00;;;;5054076;28;20650;-88
2022/12/01 08:26:27;;;;;;;16.97;10.37;;;9.20;75.60;9.30;96795.00;;;;5051671;28;20297;-87
2022/12/01 08:28:54;;;;;;;11.50;9.03;;;9.30;75.60;9.40;96784.00;;;;5050836;28;20204;-87
2022/12/01 08:31:24;;;;;;;16.33;9.40;;;9.20;75.60;9.40;96790.00;;;;5051298;28;20935;-88
2022/12/01 08:33:52;;;;;;;14.87;9.20;;;9.30;75.60;9.40;96787.00;;;;5050943;28;20212;-86
2022/12/01 08:36:22;;;;;;;14.87;10.13;;;9.30;75.80;9.40;96791.00;;;;5048407;28;20750;-86
2022/12/01 08:38:53;;;;;;;13.63;10.03;;;9.30;75.60;9.40;96789.00;;;;5051278;28;20337;-88
2022/12/01 08:41:21;;;;;;;13.63;9.93;;;9.40;75.50;9.40;96789.00;;;;5048155;28;20239;-88
2022/12/01 08:43:48;;;;;;;14.33;10.87;;;9.40;75.40;9.40;96787.00;;;;5049333;28;20805;-88
2022/12/01 08:46:15;;;;;;;15.17;9.83;;;9.40;75.10;9.50;96789.00;;;;5050617;28;20204;-88
2022/12/01 08:48:42;;;;;;;14.80;10.23;;;9.50;75.20;9.50;96787.00;;;;5053625;28;20713;-88
2022/12/01 08:51:12;;;;;;;12.50;8.83;;;9.40;75.00;9.50;96794.00;;;;5052992;28;20967;-88
2022/12/01 08:53:44;;;;;;;11.73;9.37;;;9.40;74.90;9.60;96793.00;;;;5055357;28;20234;-88
2022/12/01 08:56:15;;;;;;;15.57;10.63;;;9.40;75.10;9.60;96797.00;;;;5055021;28;20307;-87
2022/12/01 08:58:43;;;;;;;16.00;10.03;;;9.50;75.30;9.60;96799.00;;;;5053404;28;20737;-87
2022/12/01 09:01:12;;;;;;;14.57;10.10;;;9.50;75.30;9.70;96802.00;;;;5057951;28;20312;-88
2022/12/01 09:03:41;;;;;;;11.93;9.30;;;9.50;75.60;9.80;96804.00;;;;5055780;28;20303;-87
2022/12/01 09:06:11;;;;;;;13.80;9.93;;;9.50;75.60;9.80;96800.00;;;;5058376;28;20295;-87
2022/12/01 09:08:40;;;;;;;18.37;10.97;;;9.60;75.50;9.90;96802.00;;;;5054477;28;20282;-87
2022/12/01 09:11:12;;;;;;;12.07;8.67;;;9.60;75.30;9.90;96804.00;;;;5055996;28;20713;-88
2022/12/01 09:13:41;;;;;;;15.87;9.70;;;9.70;75.40;9.90;96808.00;;;;5055520;28;20310;-87
2022/12/01 09:16:12;;;;;;;14.70;10.10;;;9.70;75.40;10.00;96802.00;;;;5056011;28;20205;-87
2022/12/01 09:18:41;;;;;;;16.87;10.40;;;9.70;75.50;10.00;96809.00;;;;5057709;28;20246;-87
2022/12/01 09:21:13;;;;;;;15.17;9.73;;;9.80;75.50;10.00;96803.00;;;;5054915;28;20228;-87
2022/12/01 09:23:42;;;;;;;14.53;9.57;;;9.80;75.20;10.00;96803.00;;;;5056299;28;20307;-87
2022/12/01 09:26:10;;;;;;;12.03;9.60;;;9.90;75.10;10.10;96815.00;;;;5054818;28;20196;-87
2022/12/01 09:28:37;;;;;;;13.27;10.27;;;9.90;75.20;10.10;96811.00;;;;5056010;28;20208;-87
2022/12/01 09:31:06;;;;;;;14.30;10.33;;;9.90;75.10;10.10;96812.00;;;;5058295;28;20306;-87
2022/12/01 09:33:34;;;;;;;15.57;10.37;;;9.90;74.90;10.10;96809.00;;;;5055687;28;21121;-87
2022/12/01 09:36:03;;;;;;;16.63;10.23;;;10.00;74.80;10.20;96803.00;;;;5055904;28;20646;-87
2022/12/01 09:38:33;;;;;;;13.07;10.17;;;10.00;75.10;10.20;96803.00;;;;5057321;28;20248;-88
2022/12/01 09:41:07;;;;;;;16.23;10.20;;;10.00;75.20;10.30;96807.00;;;;5055546;28;20252;-87
2022/12/01 09:43:55;;;;;;;14.17;9.77;;;10.10;75.10;10.30;96807.00;;;;5054018;28;20313;-87
2022/12/01 09:46:30;;;;;;;13.77;9.97;;;10.10;75.00;10.30;96802.00;;;;5051591;28;20241;-87
2022/12/01 09:49:01;;;;;;;11.73;9.20;;;10.10;75.20;10.30;96804.00;;;;5055337;28;20279;-87
2022/12/01 09:51:33;;;;;;;16.77;10.37;;;10.20;75.10;10.40;96801.00;;;;5054148;28;20201;-87
2022/12/01 09:54:02;;;;;;;13.47;9.87;;;10.20;75.00;10.40;96802.00;;;;5055388;28;20216;-87
2022/12/01 09:56:39;;;;;;;12.47;9.40;;;10.20;75.00;10.40;96791.00;;;;5054353;28;20192;-87
2022/12/01 09:59:13;;;;;;;15.87;10.77;;;10.20;74.80;10.40;96801.00;;;;5054437;28;20199;-87
2022/12/01 10:01:46;;;;;;;13.93;10.23;;;10.30;74.60;10.40;96798.00;;;;5052786;28;20294;-87
2022/12/01 10:04:20;;;;;;;12.27;9.27;;;10.30;74.30;10.40;96795.00;;;;5054444;28;20239;-87
2022/12/01 10:06:54;;;;;;;14.10;9.10;;;10.30;74.40;10.50;96787.00;;;;5054276;28;20287;-87
2022/12/01 10:09:29;;;;;;;11.80;9.43;;;10.30;74.30;10.50;96784.00;;;;5053260;28;20242;-87
2022/12/01 10:12:07;;;;;;;14.47;10.10;;;10.30;74.30;10.50;96786.00;;;;5052585;28;20597;-87
2022/12/01 10:14:37;;;;;;;14.30;10.30;;;10.30;74.30;10.50;96781.00;;;;5053467;28;20223;-87
2022/12/01 10:17:21;;;;;;;12.43;9.70;;;10.30;75.00;10.50;96784.00;;;;5055544;28;20264;-87
2022/12/01 10:20:00;;;;;;;15.27;9.97;;;10.30;73.90;10.50;96778.00;;;;5052590;28;20665;-87
2022/12/01 10:22:56;;;;;;;13.23;9.63;;;10.30;73.70;10.50;96775.00;;;;5053268;28;20236;-87
2022/12/01 10:25:27;;;;;;;15.77;10.23;;;10.40;73.30;10.50;96773.00;;;;5053307;28;20267;-87
2022/12/01 10:28:23;;;;;;;14.17;9.67;;;10.40;73.80;10.50;96770.00;;;;5055437;28;20310;-87
2022/12/01 10:30:53;;;;;;;14.23;9.27;;;10.40;73.70;10.50;96764.00;;;;5054530;28;20279;-87
2022/12/01 10:33:26;;;;;;;16.27;10.90;;;10.40;74.00;10.50;96765.00;;;;5057698;28;20258;-87
2022/12/01 10:35:53;;;;;;;16.13;10.23;;;10.40;73.70;10.50;96769.00;;;;5054111;28;20196;-88
2022/12/01 10:38:27;;;;;;;14.30;10.30;;;10.40;73.40;10.50;96765.00;;;;5056079;28;20736;-87
2022/12/01 10:40:58;;;;;;;14.10;10.30;;;10.40;72.90;10.50;96760.00;;;;5053880;28;20219;-88
2022/12/01 10:43:34;;;;;;;14.20;9.77;;;10.40;72.90;10.50;96756.00;;;;5054402;28;20300;-87
2022/12/01 10:46:19;;;;;;;15.30;10.63;;;10.40;72.80;10.50;96757.00;;;;5052239;28;20223;-87
2022/12/01 10:48:54;;;;;;;14.37;10.83;;;10.40;73.00;10.50;96757.00;;;;5054149;28;20575;-87
2022/12/01 10:51:22;;;;;;;15.70;10.60;;;10.40;72.70;10.50;96747.00;;;;5050783;28;20207;-87
2022/12/01 10:53:57;;;;;;;14.30;10.83;;;10.40;72.80;10.40;96749.00;;;;5054422;28;20223;-87
2022/12/01 10:56:24;;;;;;;15.70;10.40;;;10.40;72.70;10.40;96747.00;;;;5043436;28;20283;-87
2022/12/01 10:58:55;;;;;;;20.43;11.13;;;10.40;72.50;10.40;96744.00;;;;5051968;28;20307;-87
2022/12/01 11:01:25;;;;;;;15.83;10.73;;;10.30;72.30;10.40;96742.00;;;;5051824;28;20751;-87
2022/12/01 11:03:57;;;;;;;17.10;11.43;;;10.30;72.60;10.30;96740.00;;;;5055710;28;20217;-87
2022/12/01 11:06:28;;;;;;;17.57;11.00;;;10.30;72.70;10.30;96733.00;;;;5057242;28;20282;-87
2022/12/01 11:08:59;;;;;;;17.27;11.40;;;10.30;72.90;10.30;96739.00;;;;5059005;28;20234;-87
2022/12/01 11:11:32;;;;;;;15.73;11.43;;;10.30;72.90;10.30;96735.00;;;;5058538;28;20292;-88
2022/12/01 11:14:06;;;;;;;16.50;11.30;;;10.30;72.80;10.30;96735.00;;;;5054744;28;20238;-88
2022/12/01 11:16:41;;;;;;;15.83;10.93;;;10.30;72.80;10.30;96733.00;;;;5051436;28;20250;-87